Santiago, Minnesota
Current Conditions -  °F | °C
As of 10:14 AM on Wednesday 22 Oct 2014 (Local Time) from KPNM Reporting Station
Overcast Overcast  
Wind Chill: 42°   Ceiling: 5000
Heat Index: 48°   Visibility: 10mi
Dew Point: 39°   Wind: 15mph
Humidity: 71%   Direction: 130°SE
Pressure: 30.15"   Gusts: 21mph
Location:  45.54°N, 93.82°W
Report Text: KPNM 221514Z AUTO 13013G18KT 10SM BKN050 OVC055 09/04 A3015 RMK AO2
Loading
Personal Weather Stations






























Interactive Weather Map
Tropical Storm Tracking
New forecast layout! Learn more

10-Day Weather Forecast

Advertisements
Track Severe Weather on mobile